Terminal Aerodrome Forecast
Issued by NWS Mt. Holly, NJ

Home | Current Version | Previous Version | Text Only | Print | Product List | Glossary On
Versions: 1 2 3 4 5 6 7 8 9 10 11 12 13 14 15 16 17 18 19 20 21 22 23
000
FTUS41 KPHI 202204 AAD
TAFILG
TAF AMD
KILG 202204Z 2022/2118 10004KT 4SM BR BKN007 OVC025
     FM210000 14004KT 4SM BR OVC006
     FM210400 00000KT 1SM -DZ BR OVC003
     FM211400 23005KT 5SM BR BKN008
     FM211700 22006KT P6SM FEW009 BKN020=

USA.gov is the U.S. government's official web portal to all federal, state and local government web resources and services.